sensor_id;sensor_type;location;lat;lon;timestamp;pressure;altitude;pressure_sealevel;temperature;humidity
84789;BME280;75022;50.788;20.620;2024-01-25T00:00:18;101165.22;;;3.8;91.07
84789;BME280;75022;50.788;20.620;2024-01-25T00:10:21;101158.37;;;3.77;90.71
84789;BME280;75022;50.788;20.620;2024-01-25T00:20:15;101216.88;;;3.68;90.73
84789;BME280;75022;50.788;20.620;2024-01-25T00:30:10;101215.49;;;3.6599999999999997;90.99
84789;BME280;75022;50.788;20.620;2024-01-25T00:40:12;101208.86;;;3.59;90.54
84789;BME280;75022;50.788;20.620;2024-01-25T00:50:11;101249.28;;;3.55;91.08
84789;BME280;75022;50.788;20.620;2024-01-25T01:00:11;101230.52;;;3.52;90.69
84789;BME280;75022;50.788;20.620;2024-01-25T01:10:15;101085.38;;;3.48;90.68
84789;BME280;75022;50.788;20.620;2024-01-25T01:20:17;101218.4;;;3.44;90.82
84789;BME280;75022;50.788;20.620;2024-01-25T01:30:10;101056.66;;;3.4;90.28
84789;BME280;75022;50.788;20.620;2024-01-25T01:40:07;101088.17;;;3.35;90.25999999999999
84789;BME280;75022;50.788;20.620;2024-01-25T01:50:17;101206.27;;;3.3;90.21000000000001
84789;BME280;75022;50.788;20.620;2024-01-25T02:00:16;101056.29;;;3.28;90.14
84789;BME280;75022;50.788;20.620;2024-01-25T02:10:11;101204.95;;;3.23;90.6
84789;BME280;75022;50.788;20.620;2024-01-25T02:20:11;101145.63;;;3.1799999999999997;91.06
84789;BME280;75022;50.788;20.620;2024-01-25T02:30:07;101160.56;;;3.14;90.78
84789;BME280;75022;50.788;20.620;2024-01-25T02:40:16;101122.53;;;3.09;91.85
84789;BME280;75022;50.788;20.620;2024-01-25T02:50:10;101187.4;;;3.05;92.11
84789;BME280;75022;50.788;20.620;2024-01-25T03:00:16;101253.56;;;2.99;92.39
84789;BME280;75022;50.788;20.620;2024-01-25T03:10:09;101131.02;;;2.9699999999999998;92.05
84789;BME280;75022;50.788;20.620;2024-01-25T03:20:15;101172.06;;;2.97;91.84
84789;BME280;75022;50.788;20.620;2024-01-25T03:30:13;101272.16;;;2.9099999999999997;92.02
84789;BME280;75022;50.788;20.620;2024-01-25T03:40:13;101275.85;;;2.87;91.66
84789;BME280;75022;50.788;20.620;2024-01-25T03:50:08;101109.81;;;2.82;88.61999999999999
84789;BME280;75022;50.788;20.620;2024-01-25T04:00:16;101182.74;;;2.75;87.98
84789;BME280;75022;50.788;20.620;2024-01-25T04:10:13;101162.65;;;2.7;86.88000000000001
84789;BME280;75022;50.788;20.620;2024-01-25T04:20:17;101183.98;;;2.61;83.63
84789;BME280;75022;50.788;20.620;2024-01-25T04:30:18;101208.01;;;2.55;78.92999999999999
84789;BME280;75022;50.788;20.620;2024-01-25T04:40:04;101073.67;;;2.46;73.69
84789;BME280;75022;50.788;20.620;2024-01-25T04:50:08;101164.61;;;2.3699999999999997;73.5
84789;BME280;75022;50.788;20.620;2024-01-25T05:00:18;101227.42;;;2.2899999999999996;68.25
84789;BME280;75022;50.788;20.620;2024-01-25T05:10:11;101113.13;;;2.27;68.12
84789;BME280;75022;50.788;20.620;2024-01-25T05:20:11;101236.42;;;2.25;68.58
84789;BME280;75022;50.788;20.620;2024-01-25T05:30:14;101252.63;;;2.23;69.06
84789;BME280;75022;50.788;20.620;2024-01-25T05:40:05;101150.11;;;2.23;72.09
84789;BME280;75022;50.788;20.620;2024-01-25T05:50:09;101166.76;;;2.21;76.25
84789;BME280;75022;50.788;20.620;2024-01-25T06:00:11;101208.42;;;2.2199999999999998;80.69
84789;BME280;75022;50.788;20.620;2024-01-25T06:10:08;101242.62;;;2.22;84.3
84789;BME280;75022;50.788;20.620;2024-01-25T06:20:14;101265.01;;;2.1999999999999997;87.2
84789;BME280;75022;50.788;20.620;2024-01-25T06:30:18;101167.42;;;2.17;87.25
84789;BME280;75022;50.788;20.620;2024-01-25T06:40:11;101181.0;;;2.1199999999999997;84.00999999999999
84789;BME280;75022;50.788;20.620;2024-01-25T06:50:03;101268.36;;;2.0599999999999996;80.14999999999999
84789;BME280;75022;50.788;20.620;2024-01-25T07:00:04;101123.44;;;1.99;76.52
84789;BME280;75022;50.788;20.620;2024-01-25T07:10:09;101239.33;;;1.91;72.5
84789;BME280;75022;50.788;20.620;2024-01-25T07:20:08;101130.72;;;1.86;71.04
84789;BME280;75022;50.788;20.620;2024-01-25T07:30:17;101139.15;;;1.8;72.14999999999999
84789;BME280;75022;50.788;20.620;2024-01-25T07:40:09;101210.87;;;1.78;76.24000000000001
84789;BME280;75022;50.788;20.620;2024-01-25T07:50:07;101196.88;;;1.78;79.91
84789;BME280;75022;50.788;20.620;2024-01-25T08:00:19;101229.12;;;1.79;83.89
84789;BME280;75022;50.788;20.620;2024-01-25T08:10:04;101307.49;;;1.81;88.14
84789;BME280;75022;50.788;20.620;2024-01-25T08:20:08;101219.16;;;1.82;91.55
84789;BME280;75022;50.788;20.620;2024-01-25T08:30:19;101239.16;;;1.85;94.16
84789;BME280;75022;50.788;20.620;2024-01-25T08:40:11;101169.47;;;1.87;94.57
84789;BME280;75022;50.788;20.620;2024-01-25T08:50:15;101248.22;;;1.88;94.06
84789;BME280;75022;50.788;20.620;2024-01-25T09:00:20;101279.78;;;1.92;92.43
84789;BME280;75022;50.788;20.620;2024-01-25T09:10:04;101196.27;;;1.98;93.39
84789;BME280;75022;50.788;20.620;2024-01-25T09:20:07;101259.54;;;2.03;92.96000000000001
84789;BME280;75022;50.788;20.620;2024-01-25T09:30:09;101164.86;;;2.1;93.39
84789;BME280;75022;50.788;20.620;2024-01-25T09:40:12;101290.65;;;2.1599999999999997;93.13999999999999
84789;BME280;75022;50.788;20.620;2024-01-25T09:50:13;101306.39;;;2.1999999999999997;93.74
84789;BME280;75022;50.788;20.620;2024-01-25T10:00:20;101253.28;;;2.24;95.15
84789;BME280;75022;50.788;20.620;2024-01-25T10:10:20;101278.66;;;2.22;95.07000000000001
84789;BME280;75022;50.788;20.620;2024-01-25T10:20:18;101225.4;;;2.2899999999999996;95.39
84789;BME280;75022;50.788;20.620;2024-01-25T10:30:10;101302.87;;;2.35;95.35
84789;BME280;75022;50.788;20.620;2024-01-25T10:40:18;101342.14;;;2.42;94.99
84789;BME280;75022;50.788;20.620;2024-01-25T10:50:20;101306.71;;;2.4699999999999998;95.08
84789;BME280;75022;50.788;20.620;2024-01-25T11:00:24;101228.52;;;2.55;93.16
84789;BME280;75022;50.788;20.620;2024-01-25T11:10:14;101290.91;;;2.6199999999999997;91.03
84789;BME280;75022;50.788;20.620;2024-01-25T11:20:24;101339.01;;;2.61;91.36
84789;BME280;75022;50.788;20.620;2024-01-25T11:30:13;101332.32;;;2.6199999999999997;90.8
84789;BME280;75022;50.788;20.620;2024-01-25T11:40:15;101360.5;;;2.66;90.97
84789;BME280;75022;50.788;20.620;2024-01-25T11:50:15;101255.08;;;2.71;90.94
84789;BME280;75022;50.788;20.620;2024-01-25T12:00:09;101350.98;;;2.77;91.97999999999999
84789;BME280;75022;50.788;20.620;2024-01-25T12:10:24;101333.55;;;2.82;93.35
84789;BME280;75022;50.788;20.620;2024-01-25T12:20:06;101309.69;;;2.8699999999999997;93.00999999999999
84789;BME280;75022;50.788;20.620;2024-01-25T12:30:16;101423.9;;;2.9099999999999997;92.81
84789;BME280;75022;50.788;20.620;2024-01-25T12:40:12;101312.61;;;2.94;92.77
84789;BME280;75022;50.788;20.620;2024-01-25T12:50:18;101402.18;;;2.92;93.8
84789;BME280;75022;50.788;20.620;2024-01-25T13:00:21;101395.35;;;2.93;93.88
84789;BME280;75022;50.788;20.620;2024-01-25T13:10:09;101302.42;;;2.96;93.41000000000001
84789;BME280;75022;50.788;20.620;2024-01-25T13:20:08;101484.41;;;2.96;94.32
84789;BME280;75022;50.788;20.620;2024-01-25T13:30:15;101309.21;;;2.99;94.14
84789;BME280;75022;50.788;20.620;2024-01-25T13:40:10;101390.78;;;3.0;94.2
84789;BME280;75022;50.788;20.620;2024-01-25T13:50:11;101417.8;;;3.0;94.46
84789;BME280;75022;50.788;20.620;2024-01-25T14:00:14;101434.49;;;3.0599999999999996;93.9
84789;BME280;75022;50.788;20.620;2024-01-25T14:10:09;101491.09;;;3.07;94.56
84789;BME280;75022;50.788;20.620;2024-01-25T14:20:14;101528.72;;;3.09;94.32
84789;BME280;75022;50.788;20.620;2024-01-25T14:30:11;101363.24;;;3.09;93.96
84789;BME280;75022;50.788;20.620;2024-01-25T14:40:03;101391.34;;;3.11;93.59
84789;BME280;75022;50.788;20.620;2024-01-25T14:50:13;101490.97;;;3.0999999999999996;93.61
84789;BME280;75022;50.788;20.620;2024-01-25T15:00:21;101447.4;;;3.0199999999999996;93.63
84789;BME280;75022;50.788;20.620;2024-01-25T15:10:03;101482.47;;;2.9499999999999997;94.08
84789;BME280;75022;50.788;20.620;2024-01-25T15:20:14;101520.68;;;2.86;93.53
84789;BME280;75022;50.788;20.620;2024-01-25T15:30:16;101441.95;;;2.76;93.49
84789;BME280;75022;50.788;20.620;2024-01-25T15:40:17;101514.69;;;2.69;93.81
84789;BME280;75022;50.788;20.620;2024-01-25T15:50:15;101512.36;;;2.57;94.14
84789;BME280;75022;50.788;20.620;2024-01-25T16:00:08;101637.03;;;2.57;94.07
84789;BME280;75022;50.788;20.620;2024-01-25T16:10:09;101655.64;;;2.56;93.49
84789;BME280;75022;50.788;20.620;2024-01-25T16:20:22;101562.57;;;2.53;93.54
84789;BME280;75022;50.788;20.620;2024-01-25T16:30:10;101601.21;;;2.49;94.08
84789;BME280;75022;50.788;20.620;2024-01-25T16:40:09;101622.71;;;2.45;93.47
84789;BME280;75022;50.788;20.620;2024-01-25T16:50:15;101604.04;;;2.4;93.42
84789;BME280;75022;50.788;20.620;2024-01-25T17:00:16;101551.98;;;2.36;93.85
84789;BME280;75022;50.788;20.620;2024-01-25T17:10:10;101574.58;;;2.32;93.72
84789;BME280;75022;50.788;20.620;2024-01-25T17:20:19;101742.05;;;2.3;93.16
84789;BME280;75022;50.788;20.620;2024-01-25T17:30:06;101604.0;;;2.27;93.14999999999999
84789;BME280;75022;50.788;20.620;2024-01-25T17:40:11;101633.09;;;2.25;93.14999999999999
84789;BME280;75022;50.788;20.620;2024-01-25T17:50:08;101773.82;;;2.2399999999999998;92.92999999999999
84789;BME280;75022;50.788;20.620;2024-01-25T18:00:10;101744.24;;;2.2;92.52
84789;BME280;75022;50.788;20.620;2024-01-25T18:30:19;101663.8;;;2.13;92.92
84789;BME280;75022;50.788;20.620;2024-01-25T18:40:06;101692.86;;;2.08;92.7
84789;BME280;75022;50.788;20.620;2024-01-25T18:50:03;101759.57;;;2.0599999999999996;92.68
84789;BME280;75022;50.788;20.620;2024-01-25T19:20:17;101775.14;;;1.96;82.71
84789;BME280;75022;50.788;20.620;2024-01-25T19:30:17;101847.76;;;1.93;78.43
84789;BME280;75022;50.788;20.620;2024-01-25T19:40:18;101704.17;;;1.84;74.4
84789;BME280;75022;50.788;20.620;2024-01-25T20:00:22;101908.81;;;1.64;69.45
84789;BME280;75022;50.788;20.620;2024-01-25T20:20:13;101951.11;;;1.47;69.41
84789;BME280;75022;50.788;20.620;2024-01-25T20:30:10;101882.68;;;1.39;69.49
84789;BME280;75022;50.788;20.620;2024-01-25T20:40:13;101849.83;;;1.38;69.52
84789;BME280;75022;50.788;20.620;2024-01-25T20:50:13;101821.0;;;1.4;71.28
84789;BME280;75022;50.788;20.620;2024-01-25T21:00:25;101817.55;;;1.35;75.0
84789;BME280;75022;50.788;20.620;2024-01-25T21:10:12;101883.27;;;1.26;78.94
84789;BME280;75022;50.788;20.620;2024-01-25T21:20:12;101895.14;;;1.15;82.43
84789;BME280;75022;50.788;20.620;2024-01-25T21:30:10;101883.32;;;1.05;86.41
84789;BME280;75022;50.788;20.620;2024-01-25T21:40:13;101896.59;;;0.96;90.68
84789;BME280;75022;50.788;20.620;2024-01-25T21:50:03;101912.7;;;0.85;92.96
84789;BME280;75022;50.788;20.620;2024-01-25T22:20:18;102010.21;;;0.58;93.07
84789;BME280;75022;50.788;20.620;2024-01-25T22:30:15;101906.58;;;0.48;92.22
84789;BME280;75022;50.788;20.620;2024-01-25T22:40:07;101924.33;;;0.4;92.84
84789;BME280;75022;50.788;20.620;2024-01-25T22:50:20;101995.45;;;0.31;92.66
84789;BME280;75022;50.788;20.620;2024-01-25T23:00:25;102082.58;;;0.25;92.64
84789;BME280;75022;50.788;20.620;2024-01-25T23:10:02;102007.46;;;0.24;92.25
84789;BME280;75022;50.788;20.620;2024-01-25T23:20:03;102002.96;;;0.23;92.0
84789;BME280;75022;50.788;20.620;2024-01-25T23:30:15;102124.57;;;0.21;92.49000000000001
84789;BME280;75022;50.788;20.620;2024-01-25T23:40:16;102046.82;;;0.18;93.08
84789;BME280;75022;50.788;20.620;2024-01-25T23:50:13;102026.42;;;0.15;92.56
